Time;durP1;ratioP1;P1;durP2;ratioP2;P2;SDS_P1;SDS_P2;PMS_P1;PMS_P2;Temp;Humidity;BMP_temperature;BMP_pressure;BME280_temperature;BME280_humidity;BME280_pressure;Samples;Min_cycle;Max_cycle;Signal;HPM_P1;HPM_P2
2022/07/26 00:00:48;;;;;;;2.08;0.75;;;23.10;43.90;;;;;;4999653;28;20074;-45
2022/07/26 00:03:17;;;;;;;2.00;0.68;;;23.00;44.40;;;;;;5000176;28;20046;-44
2022/07/26 00:05:44;;;;;;;7.07;1.33;;;23.00;44.00;;;;;;4999489;28;20050;-42
2022/07/26 00:08:12;;;;;;;3.38;1.00;;;23.00;44.20;;;;;;4996242;28;20137;-45
2022/07/26 00:10:41;;;;;;;8.20;1.25;;;22.90;44.30;;;;;;5000382;28;20257;-43
2022/07/26 00:13:09;;;;;;;5.00;0.88;;;22.80;44.40;;;;;;4999893;28;20406;-43
2022/07/26 00:15:37;;;;;;;5.78;0.90;;;22.70;44.40;;;;;;4994955;28;20069;-46
2022/07/26 00:18:06;;;;;;;6.60;1.05;;;22.70;44.60;;;;;;4988984;28;20050;-43
2022/07/26 00:20:34;;;;;;;3.60;1.05;;;22.60;44.60;;;;;;4981539;28;20632;-44
2022/07/26 00:23:02;;;;;;;5.38;1.00;;;22.60;44.90;;;;;;4982023;28;20503;-45
2022/07/26 00:25:30;;;;;;;2.40;0.88;;;22.50;45.00;;;;;;4981717;28;20055;-43
2022/07/26 00:27:57;;;;;;;2.95;0.82;;;22.40;45.10;;;;;;4992684;28;20588;-44
2022/07/26 00:30:25;;;;;;;5.22;1.00;;;22.30;45.30;;;;;;4996849;28;20073;-48
2022/07/26 00:32:53;;;;;;;3.42;1.10;;;22.30;45.40;;;;;;4988250;28;20054;-43
2022/07/26 00:35:21;;;;;;;3.28;0.80;;;22.20;45.60;;;;;;5000241;28;20069;-42
2022/07/26 00:37:50;;;;;;;6.00;0.73;;;22.20;45.90;;;;;;5000743;28;20053;-45
2022/07/26 00:40:18;;;;;;;9.45;0.90;;;22.10;45.90;;;;;;5001118;28;20061;-42
2022/07/26 00:42:45;;;;;;;4.00;0.95;;;22.00;46.00;;;;;;5000578;28;20053;-43
2022/07/26 00:45:14;;;;;;;2.92;1.00;;;22.00;46.00;;;;;;4997595;28;20061;-45
2022/07/26 00:47:42;;;;;;;5.93;1.23;;;22.00;46.00;;;;;;4995863;28;20049;-45
2022/07/26 00:50:12;;;;;;;2.40;0.85;;;21.90;46.20;;;;;;5000506;28;20058;-44
2022/07/26 00:52:42;;;;;;;3.63;1.08;;;21.90;46.40;;;;;;4993807;28;20070;-46
2022/07/26 00:55:12;;;;;;;4.07;1.35;;;21.90;46.30;;;;;;5000443;28;20053;-48
2022/07/26 00:57:40;;;;;;;6.15;0.80;;;21.90;46.30;;;;;;4995802;28;20053;-44
2022/07/26 01:00:10;;;;;;;2.58;0.70;;;21.90;46.30;;;;;;5001627;28;20292;-43
2022/07/26 01:02:38;;;;;;;5.07;0.93;;;21.90;46.50;;;;;;5005468;28;20525;-43
2022/07/26 01:05:07;;;;;;;4.45;1.00;;;21.90;46.60;;;;;;5002710;28;20053;-45
2022/07/26 01:07:36;;;;;;;5.30;1.13;;;21.80;46.60;;;;;;5001879;28;20065;-43
2022/07/26 01:10:05;;;;;;;7.13;1.15;;;21.80;46.60;;;;;;5000372;28;20065;-42
2022/07/26 01:12:34;;;;;;;4.10;0.93;;;21.80;46.60;;;;;;5002046;28;20050;-43
2022/07/26 01:15:01;;;;;;;2.60;0.80;;;21.80;46.80;;;;;;5004259;28;20516;-47
2022/07/26 01:17:28;;;;;;;4.07;0.75;;;21.80;46.90;;;;;;5000343;28;20053;-46
2022/07/26 01:19:56;;;;;;;3.97;0.98;;;21.80;46.90;;;;;;5002712;28;20426;-44
2022/07/26 01:22:25;;;;;;;7.00;0.75;;;21.80;47.00;;;;;;5001186;28;20058;-43
2022/07/26 01:24:52;;;;;;;4.20;0.98;;;21.80;47.10;;;;;;5005077;28;20065;-46
2022/07/26 01:27:20;;;;;;;1.25;0.55;;;21.80;47.00;;;;;;4997275;28;20061;-44
2022/07/26 01:29:48;;;;;;;1.88;0.60;;;21.80;47.00;;;;;;5003888;28;20406;-45
2022/07/26 01:32:16;;;;;;;1.63;0.68;;;21.80;47.10;;;;;;5002272;28;20807;-46
2022/07/26 01:34:43;;;;;;;3.38;0.80;;;21.90;47.20;;;;;;5003236;28;20413;-43
2022/07/26 01:37:11;;;;;;;3.50;0.65;;;21.90;47.10;;;;;;5001632;28;20053;-45
2022/07/26 01:39:40;;;;;;;3.67;0.77;;;21.90;47.10;;;;;;4997722;28;20066;-43
2022/07/26 01:42:07;;;;;;;5.93;0.70;;;22.00;47.20;;;;;;5003251;28;20418;-44
2022/07/26 01:44:35;;;;;;;3.92;0.80;;;22.00;47.10;;;;;;5003280;28;20050;-43
2022/07/26 01:47:03;;;;;;;4.25;0.93;;;22.00;46.90;;;;;;4998142;28;20058;-44
2022/07/26 01:49:31;;;;;;;1.95;0.70;;;22.00;47.00;;;;;;5002197;28;20057;-45
2022/07/26 01:51:58;;;;;;;1.05;0.50;;;22.10;47.00;;;;;;5004477;28;20057;-44
2022/07/26 01:54:25;;;;;;;4.03;0.90;;;22.10;47.00;;;;;;5003074;28;20054;-43
2022/07/26 01:56:54;;;;;;;3.97;1.08;;;22.10;47.00;;;;;;5000783;28;20058;-42
2022/07/26 01:59:22;;;;;;;4.85;0.88;;;22.10;47.30;;;;;;5001432;28;20137;-44
2022/07/26 02:01:49;;;;;;;2.45;0.80;;;22.10;47.40;;;;;;4998446;28;20379;-43
2022/07/26 02:06:58;;;;;;;2.28;0.80;;;22.00;47.60;;;;;;4997443;28;20058;-46
2022/07/26 02:09:25;;;;;;;2.58;0.80;;;21.90;47.70;;;;;;5001606;28;20501;-45
2022/07/26 02:11:54;;;;;;;6.70;1.33;;;21.90;47.90;;;;;;5002327;28;20057;-46
2022/07/26 02:14:22;;;;;;;2.40;0.80;;;21.90;48.10;;;;;;5001789;28;20530;-42
2022/07/26 02:16:49;;;;;;;2.50;0.95;;;21.90;48.00;;;;;;4995569;28;20049;-46
2022/07/26 02:19:17;;;;;;;3.00;0.85;;;21.80;48.10;;;;;;5003315;28;20054;-45
2022/07/26 02:21:44;;;;;;;6.47;1.60;;;21.80;48.30;;;;;;4996812;28;20054;-44
2022/07/26 02:24:12;;;;;;;3.33;1.00;;;21.70;48.40;;;;;;5004342;28;20065;-46
2022/07/26 02:26:39;;;;;;;2.20;0.88;;;21.70;48.40;;;;;;4987461;28;20512;-43
2022/07/26 02:29:08;;;;;;;3.47;1.30;;;21.60;48.60;;;;;;4979407;28;20073;-42
2022/07/26 02:31:36;;;;;;;4.05;1.00;;;21.60;48.70;;;;;;4978826;28;20058;-42
2022/07/26 02:34:03;;;;;;;5.85;1.40;;;21.60;48.80;;;;;;5003702;28;20054;-43
2022/07/26 02:36:31;;;;;;;8.15;1.42;;;21.60;48.90;;;;;;4999564;28;20414;-48
2022/07/26 02:38:58;;;;;;;3.15;1.42;;;21.50;49.10;;;;;;4998775;28;20053;-43
2022/07/26 02:41:26;;;;;;;2.22;0.98;;;21.50;49.00;;;;;;4998417;28;20045;-42
2022/07/26 02:43:53;;;;;;;3.70;0.93;;;21.50;49.10;;;;;;5002419;28;20057;-44
2022/07/26 02:46:22;;;;;;;7.00;1.02;;;21.40;49.10;;;;;;4996882;28;20046;-43
2022/07/26 02:48:49;;;;;;;4.05;0.93;;;21.40;49.30;;;;;;5000954;28;20059;-43
2022/07/26 02:51:17;;;;;;;3.08;1.10;;;21.30;49.20;;;;;;5002553;28;20050;-42
2022/07/26 02:53:44;;;;;;;3.60;1.55;;;21.30;49.20;;;;;;5002967;28;20061;-44
2022/07/26 02:56:12;;;;;;;5.07;1.08;;;21.30;49.30;;;;;;4997548;28;20482;-42
2022/07/26 02:58:39;;;;;;;2.97;1.10;;;21.30;49.30;;;;;;5000913;28;20057;-45
2022/07/26 03:01:06;;;;;;;2.40;0.93;;;21.30;49.30;;;;;;4997128;28;20847;-44
2022/07/26 03:03:35;;;;;;;3.80;1.08;;;21.30;49.30;;;;;;5004045;28;20525;-42
2022/07/26 03:06:03;;;;;;;2.58;0.90;;;21.30;49.40;;;;;;4993421;28;20046;-46
2022/07/26 03:08:30;;;;;;;1.52;0.82;;;21.30;49.40;;;;;;4998648;28;20053;-42
2022/07/26 03:10:59;;;;;;;11.18;1.48;;;21.30;49.60;;;;;;4999380;28;20069;-46
2022/07/26 03:13:27;;;;;;;3.33;1.20;;;21.40;49.60;;;;;;4998652;28;20049;-46
2022/07/26 03:15:54;;;;;;;1.90;0.70;;;21.30;49.50;;;;;;4997486;28;20054;-43
2022/07/26 03:18:22;;;;;;;5.10;1.50;;;21.40;49.50;;;;;;4998635;28;20399;-43
2022/07/26 03:20:50;;;;;;;4.30;1.75;;;21.40;49.50;;;;;;5002209;28;20054;-44
2022/07/26 03:23:18;;;;;;;3.28;1.10;;;21.40;49.60;;;;;;4999990;28;20387;-44
2022/07/26 03:25:45;;;;;;;4.60;1.25;;;21.40;49.50;;;;;;4997104;28;20073;-47
2022/07/26 03:28:13;;;;;;;1.55;0.80;;;21.40;49.60;;;;;;4997607;28;20053;-43
2022/07/26 03:30:42;;;;;;;2.75;0.73;;;21.50;49.60;;;;;;4999260;28;20050;-44
2022/07/26 03:33:09;;;;;;;2.55;1.00;;;21.50;49.40;;;;;;4999845;28;20065;-42
2022/07/26 03:35:38;;;;;;;3.20;0.70;;;21.50;49.40;;;;;;5002230;28;20057;-43
2022/07/26 03:38:07;;;;;;;3.28;1.10;;;21.50;49.30;;;;;;5002408;28;20050;-44
2022/07/26 03:40:34;;;;;;;2.15;0.90;;;21.50;49.30;;;;;;5002096;28;20061;-43
2022/07/26 03:43:02;;;;;;;4.88;1.10;;;21.60;49.20;;;;;;5001512;28;20057;-42
2022/07/26 03:45:29;;;;;;;2.72;1.00;;;21.50;49.10;;;;;;5002292;28;20061;-43
2022/07/26 03:47:57;;;;;;;2.45;0.88;;;21.60;49.10;;;;;;5001611;28;20064;-45
2022/07/26 03:50:24;;;;;;;1.52;0.63;;;21.60;49.00;;;;;;4999973;28;20049;-42
2022/07/26 03:52:52;;;;;;;5.07;1.77;;;21.60;49.00;;;;;;5002337;28;20434;-41
2022/07/26 03:58:05;;;;;;;5.03;1.73;;;21.60;49.00;;;;;;5006781;28;20511;-43
2022/07/26 04:00:33;;;;;;;2.90;1.10;;;21.70;49.00;;;;;;5002705;28;20054;-42
2022/07/26 04:03:00;;;;;;;2.78;0.98;;;21.70;48.90;;;;;;5002531;28;20528;-42
2022/07/26 04:05:28;;;;;;;2.17;1.20;;;21.70;49.00;;;;;;5002457;28;20065;-43
2022/07/26 04:07:55;;;;;;;2.72;1.00;;;21.70;49.00;;;;;;5001973;28;20054;-42
2022/07/26 04:10:24;;;;;;;3.55;1.10;;;21.70;48.90;;;;;;5002686;28;20084;-41
2022/07/26 04:12:51;;;;;;;1.48;0.70;;;21.70;48.90;;;;;;5000714;28;20068;-46
2022/07/26 04:15:20;;;;;;;4.13;0.90;;;21.70;48.90;;;;;;5002040;28;20054;-45
2022/07/26 04:17:48;;;;;;;1.05;0.65;;;21.70;48.80;;;;;;4995855;28;20049;-44
2022/07/26 04:20:16;;;;;;;3.90;0.85;;;21.80;48.90;;;;;;5002033;28;20054;-44
2022/07/26 04:22:43;;;;;;;1.88;0.63;;;21.80;48.90;;;;;;4998137;28;20053;-45
2022/07/26 04:25:11;;;;;;;2.08;0.90;;;21.80;48.90;;;;;;5002464;28;20064;-43
2022/07/26 04:27:40;;;;;;;1.13;0.60;;;21.80;48.80;;;;;;5000697;28;20049;-42
2022/07/26 04:30:08;;;;;;;2.42;1.00;;;21.80;48.80;;;;;;5000499;28;20479;-42
2022/07/26 04:32:36;;;;;;;1.13;0.82;;;21.80;48.80;;;;;;5002296;28;20057;-43
2022/07/26 04:35:04;;;;;;;3.28;0.98;;;21.80;48.80;;;;;;4997698;28;20069;-44
2022/07/26 04:37:38;;;;;;;3.33;0.80;;;21.80;48.80;;;;;;5002614;28;20060;-45
2022/07/26 04:40:06;;;;;;;;;;;21.80;48.80;;;;;;5001440;28;20050;-43
2022/07/26 04:42:34;;;;;;;3.10;0.90;;;21.90;48.70;;;;;;5005008;28;20377;-42
2022/07/26 04:45:03;;;;;;;2.55;0.70;;;21.80;48.60;;;;;;5005380;28;20065;-42
2022/07/26 04:47:31;;;;;;;1.33;0.70;;;21.80;48.70;;;;;;5001329;28;20056;-44
2022/07/26 04:49:58;;;;;;;5.95;1.05;;;21.80;48.80;;;;;;5002959;28;20483;-42
2022/07/26 04:52:25;;;;;;;3.00;0.95;;;21.80;48.80;;;;;;5002563;28;20510;-43
2022/07/26 04:54:53;;;;;;;3.92;1.38;;;21.80;48.90;;;;;;5005066;28;20058;-47
2022/07/26 04:57:21;;;;;;;3.15;0.98;;;21.80;49.10;;;;;;5000350;28;20054;-45
2022/07/26 04:59:48;;;;;;;1.63;1.00;;;21.80;49.10;;;;;;4999799;28;20065;-44
2022/07/26 05:02:17;;;;;;;2.53;1.05;;;21.80;49.30;;;;;;5000019;28;20498;-44
2022/07/26 05:04:44;;;;;;;3.00;1.33;;;21.80;49.30;;;;;;5001646;28;20073;-42
2022/07/26 05:07:12;;;;;;;6.55;1.77;;;21.80;49.30;;;;;;5003118;28;20061;-43
2022/07/26 05:09:39;;;;;;;4.25;1.33;;;21.80;49.30;;;;;;5002272;28;20053;-44
2022/07/26 05:12:08;;;;;;;6.30;1.40;;;21.80;49.30;;;;;;5004840;28;20524;-46
2022/07/26 05:14:37;;;;;;;4.97;1.20;;;21.80;49.30;;;;;;5003823;28;20050;-42
2022/07/26 05:17:04;;;;;;;6.20;1.38;;;21.80;49.30;;;;;;5000288;28;20050;-45
2022/07/26 05:19:33;;;;;;;4.35;1.40;;;21.90;49.30;;;;;;5004079;28;20050;-42
2022/07/26 05:22:01;;;;;;;4.05;1.40;;;21.80;49.40;;;;;;5005210;28;20066;-44
2022/07/26 05:24:28;;;;;;;3.83;1.27;;;21.90;49.40;;;;;;5004177;28;20072;-45
2022/07/26 05:26:56;;;;;;;3.50;1.30;;;21.90;49.40;;;;;;5001689;28;20518;-42
2022/07/26 05:29:25;;;;;;;1.83;1.05;;;21.90;49.40;;;;;;4998834;28;20403;-43
2022/07/26 05:31:53;;;;;;;4.47;1.30;;;21.90;49.40;;;;;;5001133;28;20068;-41
2022/07/26 05:34:23;;;;;;;4.75;1.40;;;21.90;49.30;;;;;;5003905;28;20056;-44
2022/07/26 05:36:53;;;;;;;6.63;1.30;;;21.90;49.30;;;;;;4997693;28;20045;-43
2022/07/26 05:39:21;;;;;;;4.00;1.40;;;21.90;49.40;;;;;;5000326;28;20422;-43
2022/07/26 05:41:50;;;;;;;5.53;1.50;;;21.90;49.40;;;;;;5003473;28;20053;-42
2022/07/26 05:44:22;;;;;;;3.50;1.25;;;21.90;49.40;;;;;;4998948;28;20057;-48
2022/07/26 05:46:51;;;;;;;2.60;1.10;;;21.90;49.40;;;;;;4999537;28;20042;-43
2022/07/26 05:49:19;;;;;;;4.57;1.55;;;22.00;49.40;;;;;;5000548;28;20050;-43
2022/07/26 05:51:49;;;;;;;2.78;1.15;;;22.00;49.50;;;;;;5002458;28;20493;-45
2022/07/26 05:54:19;;;;;;;4.13;1.10;;;22.00;49.50;;;;;;5002525;28;20049;-41
2022/07/26 05:56:49;;;;;;;5.28;1.60;;;22.00;49.50;;;;;;5000180;28;20045;-43
2022/07/26 05:59:17;;;;;;;4.82;1.60;;;22.00;49.50;;;;;;5000250;28;20521;-44
2022/07/26 06:01:46;;;;;;;3.22;1.38;;;22.10;49.60;;;;;;4999875;28;20058;-43
2022/07/26 06:04:14;;;;;;;5.15;1.45;;;22.10;49.70;;;;;;5000393;28;20045;-44
2022/07/26 06:06:43;;;;;;;11.00;2.45;;;22.20;49.70;;;;;;5002093;28;20050;-42
2022/07/26 06:09:13;;;;;;;5.35;1.80;;;22.20;49.90;;;;;;5000366;28;20058;-46
2022/07/26 06:11:43;;;;;;;4.22;1.50;;;22.20;49.80;;;;;;5002032;28;20061;-42
2022/07/26 06:14:12;;;;;;;5.10;1.90;;;22.30;50.30;;;;;;5003001;28;20049;-41
2022/07/26 06:16:40;;;;;;;4.72;1.60;;;22.30;49.80;;;;;;4983057;28;20057;-42
2022/07/26 06:19:09;;;;;;;6.10;1.75;;;22.30;49.70;;;;;;4999606;28;20062;-43
2022/07/26 06:21:37;;;;;;;5.88;2.05;;;22.30;49.60;;;;;;5003432;28;20049;-42
2022/07/26 06:24:06;;;;;;;6.70;1.65;;;22.30;49.60;;;;;;5003384;28;20058;-41
2022/07/26 06:26:34;;;;;;;6.82;1.88;;;22.30;49.50;;;;;;4980306;28;20054;-42
2022/07/26 06:29:04;;;;;;;5.15;1.77;;;22.30;49.50;;;;;;4995969;28;20054;-44
2022/07/26 06:31:33;;;;;;;5.30;1.60;;;22.40;49.70;;;;;;5002404;28;20069;-42
2022/07/26 06:34:02;;;;;;;9.82;1.52;;;22.40;49.60;;;;;;5001273;28;20049;-42
2022/07/26 06:36:32;;;;;;;3.80;1.50;;;22.40;49.60;;;;;;4994873;28;20064;-44
2022/07/26 06:39:00;;;;;;;3.17;1.60;;;22.40;49.60;;;;;;5000123;28;20576;-43
2022/07/26 06:41:29;;;;;;;5.07;1.77;;;22.40;49.80;;;;;;4999490;28;20056;-46
2022/07/26 06:43:57;;;;;;;5.18;1.80;;;22.40;49.80;;;;;;4999287;28;20064;-44
2022/07/26 06:46:27;;;;;;;4.60;1.63;;;22.40;49.90;;;;;;4997088;28;20057;-45
2022/07/26 06:48:55;;;;;;;5.22;1.67;;;22.40;49.90;;;;;;4997152;28;20407;-45
2022/07/26 06:51:23;;;;;;;8.57;2.10;;;22.40;49.90;;;;;;4998737;28;20421;-42
2022/07/26 06:54:10;;;;;;;6.47;2.08;;;22.40;50.00;;;;;;4979770;28;20399;-44
2022/07/26 06:56:38;;;;;;;7.75;2.35;;;22.40;50.10;;;;;;4998607;28;20057;-44
2022/07/26 06:59:07;;;;;;;8.30;2.67;;;22.50;50.20;;;;;;4998656;28;20057;-43
2022/07/26 07:01:36;;;;;;;6.72;2.58;;;22.40;50.30;;;;;;5002343;28;20058;-43
2022/07/26 07:04:03;;;;;;;10.77;4.05;;;22.40;50.60;;;;;;5000366;28;20053;-42
2022/07/26 07:06:31;;;;;;;8.45;3.70;;;22.40;50.90;;;;;;4996432;28;20061;-43
2022/07/26 07:08:58;;;;;;;9.82;4.07;;;22.30;51.30;;;;;;4994826;28;20054;-45
2022/07/26 07:11:26;;;;;;;10.68;3.78;;;22.30;51.20;;;;;;4999119;28;20057;-46
2022/07/26 07:13:53;;;;;;;12.20;4.00;;;22.30;51.30;;;;;;4999500;28;20068;-45
2022/07/26 07:16:21;;;;;;;12.48;4.53;;;22.30;51.30;;;;;;4996909;28;20053;-42
2022/07/26 07:18:50;;;;;;;9.85;3.95;;;22.30;51.30;;;;;;5001293;28;20054;-43
2022/07/26 07:21:17;;;;;;;8.80;3.45;;;22.30;51.50;;;;;;5001525;28;20058;-44
2022/07/26 07:23:45;;;;;;;8.43;3.50;;;22.20;51.40;;;;;;4995280;28;20133;-44
2022/07/26 07:26:12;;;;;;;12.48;3.67;;;22.20;51.40;;;;;;4993380;28;20057;-45
2022/07/26 07:28:40;;;;;;;12.30;3.78;;;22.20;51.50;;;;;;4995211;28;20058;-47
2022/07/26 07:31:07;;;;;;;13.13;4.53;;;22.20;51.50;;;;;;4999479;28;20064;-45
2022/07/26 07:33:35;;;;;;;9.32;3.38;;;22.20;51.70;;;;;;4998337;28;20057;-44
2022/07/26 07:36:04;;;;;;;16.52;3.78;;;22.10;51.80;;;;;;4993375;28;20081;-43
2022/07/26 07:38:32;;;;;;;7.82;3.00;;;22.10;52.00;;;;;;4998566;28;20502;-42
2022/07/26 07:40:59;;;;;;;9.63;3.60;;;22.00;51.90;;;;;;4998976;28;20062;-43
2022/07/26 07:43:26;;;;;;;10.95;4.13;;;22.00;52.30;;;;;;4994709;28;20057;-45
2022/07/26 07:45:54;;;;;;;11.15;3.63;;;22.00;52.50;;;;;;4993449;28;20958;-43
2022/07/26 07:48:21;;;;;;;9.68;3.58;;;22.00;52.30;;;;;;4997808;28;20049;-43
2022/07/26 07:50:49;;;;;;;11.98;4.18;;;22.00;52.40;;;;;;4998983;28;20057;-46
2022/07/26 07:53:18;;;;;;;14.57;3.67;;;22.00;52.40;;;;;;4998472;28;20422;-42
2022/07/26 07:55:45;;;;;;;10.98;3.45;;;22.00;52.40;;;;;;4992266;28;20058;-43
2022/07/26 07:58:12;;;;;;;8.65;3.60;;;22.00;52.40;;;;;;4997272;28;20493;-41
2022/07/26 08:00:40;;;;;;;14.73;4.20;;;22.10;52.50;;;;;;5001312;28;20080;-43
2022/07/26 08:03:07;;;;;;;13.25;3.67;;;22.10;52.70;;;;;;5002269;28;20062;-42
2022/07/26 08:05:35;;;;;;;9.10;3.40;;;22.10;52.90;;;;;;4995931;28;20054;-46
2022/07/26 08:08:03;;;;;;;6.47;3.38;;;22.10;52.70;;;;;;4996049;28;20061;-48
2022/07/26 08:10:32;;;;;;;8.48;3.40;;;22.10;52.60;;;;;;5005156;28;20050;-41
2022/07/26 08:13:00;;;;;;;7.78;2.92;;;22.20;52.80;;;;;;5003207;28;20068;-41
2022/07/26 08:15:27;;;;;;;6.78;3.03;;;22.20;52.50;;;;;;5000415;28;20054;-42
2022/07/26 08:17:55;;;;;;;12.27;4.97;;;22.30;52.70;;;;;;5001533;28;20046;-45
2022/07/26 08:20:23;;;;;;;11.35;4.05;;;22.30;52.60;;;;;;5000483;28;20069;-42
2022/07/26 08:22:50;;;;;;;17.30;4.80;;;22.40;52.50;;;;;;5005022;28;20045;-44
2022/07/26 08:25:18;;;;;;;9.63;3.78;;;22.30;52.40;;;;;;5002164;28;20058;-44
2022/07/26 08:27:46;;;;;;;10.85;3.53;;;22.30;52.40;;;;;;4999139;28;20069;-47
2022/07/26 08:30:14;;;;;;;7.55;3.25;;;22.30;52.80;;;;;;4999950;28;20054;-47
2022/07/26 08:32:42;;;;;;;11.32;3.95;;;22.30;52.40;;;;;;5000594;28;20426;-44
2022/07/26 08:35:10;;;;;;;11.70;3.90;;;22.30;52.60;;;;;;5004101;28;20078;-42
2022/07/26 08:37:38;;;;;;;9.07;3.72;;;22.30;52.70;;;;;;5000245;28;20062;-43
2022/07/26 08:40:07;;;;;;;7.50;3.47;;;22.30;52.70;;;;;;5003822;28;20058;-45
2022/07/26 08:42:34;;;;;;;11.38;3.70;;;22.30;52.90;;;;;;5000909;28;20061;-43
2022/07/26 08:45:03;;;;;;;8.70;3.25;;;22.40;52.80;;;;;;5004528;28;20058;-46
2022/07/26 08:47:31;;;;;;;10.38;3.83;;;22.40;52.80;;;;;;4994424;28;20058;-44
2022/07/26 08:49:58;;;;;;;7.05;3.45;;;22.50;52.90;;;;;;5002200;28;20426;-46
2022/07/26 08:52:26;;;;;;;8.80;3.30;;;22.50;52.70;;;;;;5003861;28;20061;-44
2022/07/26 08:54:53;;;;;;;11.90;3.47;;;22.50;52.50;;;;;;5000146;28;20084;-44
2022/07/26 08:57:21;;;;;;;9.55;3.10;;;22.60;52.50;;;;;;4995883;28;20078;-45
2022/07/26 09:00:17;;;;;;;11.07;3.97;;;22.60;52.20;;;;;;5001990;28;20054;-47
2022/07/26 09:02:45;;;;;;;7.85;3.42;;;22.70;52.20;;;;;;5005164;28;20042;-47
2022/07/26 09:05:13;;;;;;;8.45;3.05;;;22.80;52.10;;;;;;5005831;28;20420;-43
2022/07/26 09:07:41;;;;;;;14.55;4.03;;;22.80;52.00;;;;;;4999663;28;20061;-49
2022/07/26 09:10:11;;;;;;;12.05;3.97;;;22.90;52.00;;;;;;5002470;28;20045;-44
2022/07/26 09:12:40;;;;;;;9.30;3.50;;;22.90;52.00;;;;;;5001350;28;20529;-44
2022/07/26 09:15:17;;;;;;;7.57;3.38;;;23.00;51.80;;;;;;5002244;28;20053;-48
2022/07/26 09:17:49;;;;;;;6.00;2.80;;;23.10;51.60;;;;;;4999754;28;20413;-43
2022/07/26 09:20:20;;;;;;;6.72;2.80;;;23.10;51.10;;;;;;5001036;28;20490;-43
2022/07/26 09:23:02;;;;;;;9.80;3.42;;;23.10;51.20;;;;;;5001490;28;20450;-44
2022/07/26 09:25:32;;;;;;;8.05;3.63;;;23.20;51.00;;;;;;4993391;28;21349;-41
2022/07/26 09:28:00;;;;;;;8.65;3.50;;;23.30;51.00;;;;;;4998240;28;21895;-42
2022/07/26 09:30:29;;;;;;;7.97;4.00;;;23.40;50.90;;;;;;4998367;28;20065;-42
2022/07/26 09:33:03;;;;;;;12.25;5.97;;;23.40;50.80;;;;;;5001821;28;20054;-48
2022/07/26 09:35:33;;;;;;;12.80;6.40;;;23.40;49.60;;;;;;5003111;28;20419;-44
2022/07/26 09:38:01;;;;;;;12.85;6.20;;;23.40;50.10;;;;;;5004647;28;20053;-42
2022/07/26 09:40:35;;;;;;;10.10;5.47;;;23.40;49.80;;;;;;4998706;28;20053;-43
2022/07/26 09:43:04;;;;;;;12.53;6.13;;;23.40;49.80;;;;;;4997845;28;20396;-49
2022/07/26 09:45:33;;;;;;;11.05;6.30;;;23.40;50.10;;;;;;4996840;28;20062;-52
2022/07/26 09:48:02;;;;;;;8.80;4.60;;;23.30;50.20;;;;;;5001757;28;20058;-44
2022/07/26 09:50:31;;;;;;;8.73;4.47;;;23.30;50.00;;;;;;5000145;28;20057;-53
2022/07/26 09:53:06;;;;;;;12.70;5.13;;;23.40;49.80;;;;;;5001272;28;20057;-51
2022/07/26 09:55:35;;;;;;;8.70;4.03;;;23.40;49.40;;;;;;5001927;28;20490;-45
2022/07/26 09:58:05;;;;;;;8.32;4.63;;;23.40;49.60;;;;;;5001629;28;20064;-45
2022/07/26 10:00:33;;;;;;;12.55;4.97;;;23.40;49.50;;;;;;5003358;28;20056;-48
2022/07/26 10:03:02;;;;;;;8.38;4.72;;;23.40;49.30;;;;;;4998211;28;20525;-43
2022/07/26 10:05:31;;;;;;;9.52;4.78;;;23.30;48.90;;;;;;5000063;28;20529;-44
2022/07/26 10:08:00;;;;;;;10.82;5.05;;;23.40;49.60;;;;;;5001592;28;20065;-46
2022/07/26 10:10:31;;;;;;;10.63;4.82;;;23.40;49.80;;;;;;4997598;28;20065;-46
2022/07/26 10:13:01;;;;;;;9.88;5.47;;;23.40;49.80;;;;;;5002271;28;20058;-48
2022/07/26 10:15:37;;;;;;;11.65;5.65;;;23.40;49.70;;;;;;4996984;28;20058;-44
2022/07/26 10:18:07;;;;;;;6.90;4.75;;;23.40;49.60;;;;;;4998998;28;20057;-43
2022/07/26 10:20:59;;;;;;;8.32;5.50;;;23.50;49.80;;;;;;5003202;28;20050;-45
2022/07/26 10:23:34;;;;;;;11.70;5.53;;;23.50;49.40;;;;;;4988155;28;20050;-42
2022/07/26 10:26:03;;;;;;;16.63;6.47;;;23.60;49.50;;;;;;4997797;28;20049;-43
2022/07/26 10:28:32;;;;;;;12.82;6.93;;;23.60;49.60;;;;;;4998078;28;20439;-42
2022/07/26 10:31:31;;;;;;;14.95;6.68;;;23.60;49.70;;;;;;5002313;28;20498;-47
2022/07/26 10:34:01;;;;;;;9.25;5.10;;;23.70;49.40;;;;;;4998536;28;20069;-44
2022/07/26 10:36:32;;;;;;;9.13;5.35;;;23.80;48.90;;;;;;4998219;28;20062;-44
2022/07/26 10:39:08;;;;;;;11.85;5.63;;;23.80;48.00;;;;;;5001888;28;20054;-43
2022/07/26 10:41:40;;;;;;;11.73;5.40;;;23.90;48.20;;;;;;4997827;28;20064;-50
2022/07/26 10:44:16;;;;;;;7.38;5.32;;;24.00;48.10;;;;;;5000078;28;20514;-41
2022/07/26 10:47:11;;;;;;;11.63;5.82;;;24.10;47.70;;;;;;5001130;28;20053;-43
2022/07/26 10:49:42;;;;;;;9.85;5.38;;;24.00;47.40;;;;;;5004171;28;20065;-46
2022/07/26 10:52:18;;;;;;;13.13;6.30;;;24.10;47.90;;;;;;5005252;28;20517;-44
2022/07/26 10:55:12;;;;;;;11.02;6.60;;;24.10;47.60;;;;;;5005048;28;20062;-44
2022/07/26 10:57:41;;;;;;;11.65;5.45;;;24.10;47.60;;;;;;5000316;28;20058;-43
2022/07/26 11:00:15;;;;;;;9.65;4.55;;;24.10;47.70;;;;;;5004533;28;20060;-45
2022/07/26 11:02:44;;;;;;;12.95;6.55;;;24.20;47.80;;;;;;5001394;28;20054;-42
2022/07/26 11:05:15;;;;;;;16.38;7.20;;;24.30;47.80;;;;;;5003782;28;20054;-43
2022/07/26 11:07:58;;;;;;;18.35;6.38;;;24.30;47.60;;;;;;5000026;28;20081;-45
2022/07/26 11:10:29;;;;;;;8.38;5.63;;;24.30;48.10;;;;;;5002987;28;20046;-44
2022/07/26 11:13:06;;;;;;;11.50;6.68;;;24.40;48.10;;;;;;4999954;28;20414;-42
2022/07/26 11:15:34;;;;;;;10.27;5.32;;;24.40;48.20;;;;;;5002423;28;20057;-44
2022/07/26 11:18:29;;;;;;;9.35;5.97;;;24.40;48.20;;;;;;5003913;28;20058;-44
2022/07/26 11:21:09;;;;;;;8.63;5.40;;;24.50;48.20;;;;;;5004790;28;20494;-41
2022/07/26 11:23:38;;;;;;;7.88;4.30;;;24.60;48.00;;;;;;5001807;28;20510;-41
2022/07/26 11:26:09;;;;;;;6.00;4.60;;;24.60;47.90;;;;;;5001997;28;20054;-47
2022/07/26 11:28:54;;;;;;;14.43;5.32;;;24.70;47.50;;;;;;5000487;28;20045;-44
2022/07/26 11:31:25;;;;;;;11.13;5.65;;;24.70;47.50;;;;;;5003714;28;20080;-42
2022/07/26 11:33:53;;;;;;;9.68;5.07;;;24.70;47.70;;;;;;5000093;28;20057;-41
2022/07/26 11:36:37;;;;;;;7.70;4.93;;;24.80;47.50;;;;;;4998525;28;20054;-40
2022/07/26 11:39:06;;;;;;;8.50;6.23;;;24.80;47.50;;;;;;5002621;28;20057;-44
2022/07/26 11:41:34;;;;;;;12.68;5.45;;;24.90;47.30;;;;;;5001493;28;20050;-43
2022/07/26 11:44:02;;;;;;;8.38;5.07;;;24.90;47.40;;;;;;5000697;28;20061;-42
2022/07/26 11:46:38;;;;;;;6.22;4.90;;;25.00;47.50;;;;;;5000333;28;20069;-42
2022/07/26 11:49:15;;;;;;;9.98;4.72;;;25.00;47.40;;;;;;5000391;28;20069;-44
2022/07/26 11:51:52;;;;;;;8.63;4.57;;;25.00;47.00;;;;;;5002362;28;20058;-44
2022/07/26 11:54:20;;;;;;;5.40;3.58;;;25.10;47.00;;;;;;4999258;28;20065;-45
2022/07/26 11:56:52;;;;;;;6.25;2.97;;;25.10;46.90;;;;;;4999531;28;20053;-42
2022/07/26 11:59:20;;;;;;;6.20;3.00;;;25.20;46.60;;;;;;5000938;28;20061;-43
2022/07/26 12:01:48;;;;;;;4.47;2.28;;;25.20;46.60;;;;;;5002953;28;20057;-43
2022/07/26 12:04:20;;;;;;;7.40;2.88;;;25.30;46.30;;;;;;4999493;28;20905;-42
2022/07/26 12:06:48;;;;;;;12.05;2.15;;;25.30;45.10;;;;;;5000710;28;20049;-43
2022/07/26 12:09:34;;;;;;;6.32;2.30;;;25.40;45.30;;;;;;4998170;28;20054;-43
2022/07/26 12:12:03;;;;;;;2.45;1.85;;;25.40;44.60;;;;;;5001470;28;20421;-43
2022/07/26 12:14:32;;;;;;;3.85;1.60;;;25.50;45.00;;;;;;4999084;28;20514;-44
2022/07/26 12:17:11;;;;;;;5.15;2.38;;;25.40;42.40;;;;;;5000072;28;20058;-40
2022/07/26 12:19:38;;;;;;;2.28;1.70;;;25.40;43.50;;;;;;5001950;28;20057;-40
2022/07/26 12:22:10;;;;;;;3.90;1.88;;;25.40;43.70;;;;;;5001906;28;20057;-43
2022/07/26 12:24:42;;;;;;;4.80;2.22;;;25.50;43.80;;;;;;5000118;28;20054;-42
2022/07/26 12:27:12;;;;;;;2.80;1.95;;;25.50;43.40;;;;;;5000487;28;20068;-46
2022/07/26 12:29:41;;;;;;;6.45;2.00;;;25.50;42.00;;;;;;4998413;28;20402;-47
2022/07/26 12:32:12;;;;;;;4.82;1.90;;;25.40;41.40;;;;;;4997582;28;20062;-43
2022/07/26 12:34:42;;;;;;;8.82;2.55;;;25.40;41.20;;;;;;5002049;28;20064;-43
2022/07/26 12:37:15;;;;;;;2.47;1.35;;;25.40;42.00;;;;;;4997756;28;20529;-41
2022/07/26 12:40:00;;;;;;;3.80;1.98;;;25.40;43.20;;;;;;4996320;28;20417;-43
2022/07/26 12:42:30;;;;;;;5.47;2.10;;;25.50;43.10;;;;;;5000176;28;20064;-42
2022/07/26 12:44:58;;;;;;;3.65;1.90;;;25.50;41.80;;;;;;5000739;28;20062;-45
2022/07/26 12:47:26;;;;;;;7.75;2.70;;;25.50;42.10;;;;;;4995358;28;20134;-47
2022/07/26 12:49:54;;;;;;;16.73;3.50;;;25.50;41.90;;;;;;4999947;28;20054;-45
2022/07/26 12:52:22;;;;;;;12.80;3.47;;;25.30;44.00;;;;;;4993234;28;20061;-44
2022/07/26 12:54:53;;;;;;;7.93;2.85;;;25.00;45.20;;;;;;4998854;28;20069;-45
2022/07/26 12:57:21;;;;;;;6.28;2.50;;;24.70;45.90;;;;;;4997676;28;20058;-47
2022/07/26 12:59:49;;;;;;;5.68;3.20;;;24.40;46.10;;;;;;5002905;28;20791;-54
2022/07/26 13:02:18;;;;;;;6.90;3.10;;;24.00;46.90;;;;;;5004679;28;20068;-48